createdAt,value
2017-12-27T00:00:24.106Z,5.33
2017-12-27T00:01:32.069Z,5.38
2017-12-27T00:02:40.170Z,5.35
2017-12-27T00:05:25.987Z,5.32
2017-12-27T00:06:34.082Z,5.36
2017-12-27T00:07:42.116Z,5.38
2017-12-27T00:08:50.310Z,5.34
2017-12-27T00:09:58.290Z,5.32
2017-12-27T00:11:06.430Z,5.40
2017-12-27T00:12:14.478Z,5.31
2017-12-27T00:13:22.472Z,5.36
2017-12-27T00:14:30.459Z,5.42
2017-12-27T00:15:38.598Z,5.42
2017-12-27T00:16:46.835Z,5.42
2017-12-27T00:17:54.901Z,5.35
2017-12-27T00:19:02.970Z,5.46
2017-12-27T00:20:10.928Z,5.41
2017-12-27T00:21:18.924Z,5.40
2017-12-27T00:22:26.943Z,5.39
2017-12-27T00:23:35.039Z,5.27
2017-12-27T00:24:43.112Z,5.41
2017-12-27T00:25:51.197Z,5.35
2017-12-27T00:26:59.319Z,5.32
2017-12-27T00:28:07.335Z,5.40
2017-12-27T00:29:15.486Z,5.37
2017-12-27T00:30:23.565Z,5.41
2017-12-27T00:31:28.484Z,5.35
2017-12-27T00:32:30.373Z,5.44
2017-12-27T00:33:32.822Z,5.45
2017-12-27T00:34:35.284Z,5.47
2017-12-27T00:35:37.730Z,5.48
2017-12-27T00:36:40.202Z,5.43
2017-12-27T00:37:42.651Z,5.53
2017-12-27T00:38:45.116Z,5.54
2017-12-27T00:39:47.588Z,5.54
2017-12-27T00:40:50.030Z,5.60
2017-12-27T00:41:52.521Z,5.57
2017-12-27T00:42:54.980Z,5.55
2017-12-27T00:43:57.443Z,5.56
2017-12-27T00:45:00.929Z,5.63
2017-12-27T00:46:03.398Z,5.61
2017-12-27T00:47:05.867Z,5.59
2017-12-27T00:48:08.332Z,5.59
2017-12-27T00:49:10.780Z,5.65
2017-12-27T00:50:13.245Z,5.66
2017-12-27T00:51:15.693Z,5.64
2017-12-27T00:52:18.176Z,5.55
2017-12-27T00:53:20.617Z,5.57
2017-12-27T00:54:23.075Z,5.58
2017-12-27T00:55:25.522Z,5.58
2017-12-27T00:56:27.984Z,5.61
2017-12-27T00:57:30.498Z,5.61
2017-12-27T00:58:32.946Z,5.57
2017-12-27T00:59:35.404Z,5.58
2017-12-27T01:00:37.872Z,5.64
2017-12-27T01:01:40.344Z,5.56
2017-12-27T01:02:42.827Z,5.66
2017-12-27T01:03:45.299Z,5.63
2017-12-27T01:04:47.749Z,5.57
2017-12-27T01:05:50.279Z,5.57
2017-12-27T01:06:52.751Z,5.59
2017-12-27T01:07:55.252Z,5.60
2017-12-27T01:08:57.697Z,5.59
2017-12-27T01:10:00.272Z,5.56
2017-12-27T01:11:02.718Z,5.54
2017-12-27T01:12:05.175Z,5.51
2017-12-27T01:13:07.660Z,5.51
2017-12-27T01:14:10.259Z,5.53
2017-12-27T01:15:12.705Z,5.45
2017-12-27T01:16:15.162Z,5.51
2017-12-27T01:17:17.609Z,5.51
2017-12-27T01:18:20.074Z,5.49
2017-12-27T01:19:22.526Z,5.48
2017-12-27T01:20:24.987Z,5.48
2017-12-27T01:21:27.437Z,5.43
2017-12-27T01:22:29.898Z,5.44
2017-12-27T01:23:32.370Z,5.43
2017-12-27T01:24:34.841Z,5.45
2017-12-27T01:25:37.300Z,5.47
2017-12-27T01:26:39.764Z,5.44
2017-12-27T01:27:42.207Z,5.42
2017-12-27T01:28:44.670Z,5.45
2017-12-27T01:29:47.109Z,5.50
2017-12-27T01:30:49.558Z,5.43
2017-12-27T01:31:52.042Z,5.43
2017-12-27T01:32:54.486Z,5.39
2017-12-27T01:33:57.040Z,5.37
2017-12-27T01:34:59.480Z,5.43
2017-12-27T01:36:01.946Z,5.39
2017-12-27T01:37:04.394Z,5.44
2017-12-27T01:38:06.856Z,5.38
2017-12-27T01:39:09.317Z,5.40
2017-12-27T01:40:11.868Z,5.41
2017-12-27T01:41:14.332Z,5.37
2017-12-27T01:42:16.793Z,5.38
2017-12-27T01:43:19.257Z,5.42
2017-12-27T01:44:21.722Z,5.45
2017-12-27T01:45:24.188Z,5.46
2017-12-27T01:46:26.727Z,5.39
2017-12-27T01:47:29.178Z,5.34
2017-12-27T01:48:31.640Z,5.41
2017-12-27T01:49:34.110Z,5.49
2017-12-27T01:50:36.572Z,5.43
2017-12-27T01:51:39.018Z,5.43
2017-12-27T01:52:41.461Z,5.44
2017-12-27T01:53:43.906Z,5.40
2017-12-27T01:54:46.395Z,5.42
2017-12-27T01:55:48.850Z,5.47
2017-12-27T01:56:51.312Z,5.48
2017-12-27T01:57:53.792Z,5.49
2017-12-27T01:58:56.233Z,5.49
2017-12-27T01:59:58.705Z,5.44
2017-12-27T02:01:01.149Z,5.40
2017-12-27T02:02:03.616Z,5.44
2017-12-27T02:03:06.080Z,5.49
2017-12-27T02:04:08.539Z,5.44
2017-12-27T02:05:11.011Z,5.46
2017-12-27T02:06:13.473Z,5.45
2017-12-27T02:07:15.922Z,5.45
2017-12-27T02:08:18.380Z,5.43
2017-12-27T02:09:20.844Z,5.43
2017-12-27T02:10:23.318Z,5.43
2017-12-27T02:11:25.757Z,5.47
2017-12-27T02:12:28.228Z,5.49
2017-12-27T02:13:30.689Z,5.47
2017-12-27T02:14:33.158Z,5.53
2017-12-27T02:15:35.643Z,5.53
2017-12-27T02:16:38.090Z,5.53
2017-12-27T02:17:40.537Z,5.53
2017-12-27T02:18:42.998Z,5.53
2017-12-27T02:19:45.476Z,5.58
2017-12-27T02:20:47.942Z,5.56
2017-12-27T02:21:50.390Z,5.52
2017-12-27T02:22:52.848Z,5.49
2017-12-27T02:23:55.405Z,5.49
2017-12-27T02:24:57.865Z,5.53
2017-12-27T02:26:00.334Z,5.50
2017-12-27T02:27:02.778Z,5.52
2017-12-27T02:28:05.256Z,5.47
2017-12-27T02:29:07.702Z,5.48
2017-12-27T02:30:10.224Z,5.48
2017-12-27T02:31:12.691Z,5.53
2017-12-27T02:32:15.268Z,5.49
2017-12-27T02:33:17.713Z,5.48
2017-12-27T02:34:20.257Z,5.48
2017-12-27T02:35:22.722Z,5.49
2017-12-27T02:36:25.190Z,5.50
2017-12-27T02:37:27.638Z,5.52
2017-12-27T02:38:41.854Z,5.44
2017-12-27T02:41:32.252Z,5.44
2017-12-27T02:42:34.702Z,5.45
2017-12-27T02:43:37.166Z,5.49
2017-12-27T02:44:39.641Z,5.51
2017-12-27T02:45:42.100Z,5.49
2017-12-27T02:46:44.583Z,5.49
2017-12-27T02:47:47.040Z,5.54
2017-12-27T02:48:49.491Z,5.48
2017-12-27T02:49:51.963Z,5.53
2017-12-27T02:50:54.416Z,5.52
2017-12-27T02:51:56.882Z,5.55
2017-12-27T02:52:59.347Z,5.56
2017-12-27T02:54:01.812Z,5.60
2017-12-27T02:55:04.280Z,5.62
2017-12-27T02:56:06.742Z,5.61
2017-12-27T02:57:09.269Z,5.62
2017-12-27T02:58:11.709Z,5.62
2017-12-27T02:59:14.176Z,5.60
2017-12-27T03:00:16.621Z,5.64
2017-12-27T03:01:19.084Z,5.67
2017-12-27T03:02:21.549Z,5.67
2017-12-27T03:03:23.993Z,5.60
2017-12-27T03:04:26.441Z,5.66
2017-12-27T03:05:28.906Z,5.67
2017-12-27T03:06:31.350Z,5.67
2017-12-27T03:07:33.821Z,5.66
2017-12-27T03:08:36.270Z,5.67
2017-12-27T03:09:38.714Z,5.67
2017-12-27T03:10:41.179Z,5.64
2017-12-27T03:11:43.622Z,5.71
2017-12-27T03:12:46.098Z,5.73
2017-12-27T03:13:48.568Z,5.70
2017-12-27T03:14:51.018Z,5.71
2017-12-27T03:15:53.488Z,5.72
2017-12-27T03:16:55.953Z,5.73
2017-12-27T03:17:58.783Z,5.75
2017-12-27T03:19:01.244Z,5.75
2017-12-27T03:20:03.689Z,5.76
2017-12-27T03:21:06.152Z,5.77
2017-12-27T03:22:08.612Z,5.75
2017-12-27T03:23:11.097Z,5.74
2017-12-27T03:24:13.541Z,5.77
2017-12-27T03:25:15.981Z,5.78
2017-12-27T03:26:18.421Z,5.77
2017-12-27T03:27:20.869Z,5.78
2017-12-27T03:28:23.353Z,5.79
2017-12-27T03:29:25.795Z,5.77
2017-12-27T03:30:29.231Z,5.78
2017-12-27T03:31:31.682Z,5.77
2017-12-27T03:32:34.121Z,5.80
2017-12-27T03:33:36.600Z,5.80
2017-12-27T03:34:39.051Z,5.76
2017-12-27T03:35:41.513Z,5.75
2017-12-27T03:36:43.963Z,5.72
2017-12-27T03:37:46.409Z,5.73
2017-12-27T03:38:48.873Z,5.73
2017-12-27T03:39:51.340Z,5.68
2017-12-27T03:40:53.787Z,5.70
2017-12-27T03:41:56.233Z,5.59
2017-12-27T03:42:58.675Z,5.65
2017-12-27T03:44:01.166Z,5.67
2017-12-27T03:45:03.636Z,5.70
2017-12-27T03:46:06.085Z,5.68
2017-12-27T03:47:08.544Z,5.62
2017-12-27T03:48:11.029Z,5.62
2017-12-27T03:49:13.518Z,5.58
2017-12-27T03:50:15.993Z,5.61
2017-12-27T03:51:18.442Z,5.59
2017-12-27T03:52:20.917Z,5.60
2017-12-27T03:53:23.362Z,5.59
2017-12-27T03:54:25.821Z,5.56
2017-12-27T03:55:28.266Z,5.58
2017-12-27T03:56:30.738Z,5.60
2017-12-27T03:57:33.177Z,5.64
2017-12-27T03:58:35.644Z,5.59
2017-12-27T03:59:38.123Z,5.56
2017-12-27T04:00:40.624Z,5.58
2017-12-27T04:01:43.083Z,5.57
2017-12-27T04:02:45.554Z,5.58
2017-12-27T04:03:48.066Z,5.60
2017-12-27T04:04:50.551Z,5.61
2017-12-27T04:05:53.026Z,5.64
2017-12-27T04:06:55.501Z,5.62
2017-12-27T04:07:58.534Z,5.63
2017-12-27T04:09:00.982Z,5.61
2017-12-27T04:10:03.493Z,5.61
2017-12-27T04:11:05.992Z,5.62
2017-12-27T04:12:08.438Z,5.67
2017-12-27T04:13:10.907Z,5.67
2017-12-27T04:14:13.349Z,5.69
2017-12-27T04:15:15.832Z,5.70
2017-12-27T04:16:18.278Z,5.66
2017-12-27T04:17:20.741Z,5.68
2017-12-27T04:18:23.204Z,5.70
2017-12-27T04:19:25.646Z,5.73
2017-12-27T04:20:28.122Z,5.78
2017-12-27T04:21:30.624Z,5.74
2017-12-27T04:22:33.165Z,5.71
2017-12-27T04:23:35.650Z,5.73
2017-12-27T04:24:38.089Z,5.78
2017-12-27T04:25:40.596Z,5.73
2017-12-27T04:26:43.090Z,5.78
2017-12-27T04:27:45.548Z,5.78
2017-12-27T04:28:47.994Z,5.79
2017-12-27T04:29:50.460Z,5.80
2017-12-27T04:30:52.929Z,5.78
2017-12-27T04:31:55.394Z,5.79
2017-12-27T04:32:57.851Z,5.83
2017-12-27T04:34:00.316Z,5.84
2017-12-27T04:35:02.781Z,5.82
2017-12-27T04:36:05.274Z,5.86
2017-12-27T04:37:07.770Z,5.86
2017-12-27T04:38:10.296Z,5.85
2017-12-27T04:39:12.758Z,5.88
2017-12-27T04:40:15.202Z,5.90
2017-12-27T04:41:17.684Z,5.87
2017-12-27T04:42:20.144Z,5.92
2017-12-27T04:43:22.608Z,5.93
2017-12-27T04:44:25.154Z,5.91
2017-12-27T04:45:27.637Z,5.93
2017-12-27T04:46:30.116Z,5.93
2017-12-27T04:47:32.566Z,5.96
2017-12-27T04:48:35.027Z,5.96
2017-12-27T04:49:37.520Z,5.99
2017-12-27T04:50:39.980Z,6.00
2017-12-27T04:51:42.441Z,6.03
2017-12-27T04:52:44.904Z,6.01
2017-12-27T04:53:47.349Z,6.01
2017-12-27T04:54:49.820Z,5.99
2017-12-27T04:55:52.287Z,6.05
2017-12-27T04:56:54.753Z,6.01
2017-12-27T04:57:57.233Z,6.01
2017-12-27T04:58:59.700Z,6.05
2017-12-27T05:00:02.145Z,6.04
2017-12-27T05:01:04.613Z,6.06
2017-12-27T05:02:07.095Z,6.05
2017-12-27T05:03:09.560Z,6.03
2017-12-27T05:04:12.028Z,6.03
2017-12-27T05:05:14.470Z,6.04
2017-12-27T05:06:16.931Z,6.05
2017-12-27T05:07:19.401Z,6.01
2017-12-27T05:08:21.859Z,6.01
2017-12-27T05:09:24.305Z,6.07
2017-12-27T05:10:26.750Z,6.06
2017-12-27T05:11:29.198Z,6.03
2017-12-27T05:12:31.683Z,6.01
2017-12-27T05:13:34.141Z,5.97
2017-12-27T05:14:36.585Z,5.96
2017-12-27T05:15:39.051Z,5.95
2017-12-27T05:16:41.516Z,5.96
2017-12-27T05:17:44.033Z,5.97
2017-12-27T05:18:46.492Z,5.95
2017-12-27T05:19:48.952Z,5.94
2017-12-27T05:20:51.419Z,5.96
2017-12-27T05:21:53.880Z,5.97
2017-12-27T05:22:56.368Z,5.93
2017-12-27T05:23:58.813Z,5.94
2017-12-27T05:25:01.272Z,5.88
2017-12-27T05:26:03.739Z,5.91
2017-12-27T05:27:06.196Z,5.88
2017-12-27T05:28:08.666Z,5.90
2017-12-27T05:29:11.120Z,5.88
2017-12-27T05:30:13.582Z,5.85
2017-12-27T05:31:16.045Z,5.81
2017-12-27T05:32:18.539Z,5.84
2017-12-27T05:33:21.028Z,5.86
2017-12-27T05:34:23.487Z,5.85
2017-12-27T05:35:25.948Z,5.85
2017-12-27T05:36:28.414Z,5.84
2017-12-27T05:37:30.867Z,5.85
2017-12-27T05:38:33.348Z,5.83
2017-12-27T05:39:35.790Z,5.83
2017-12-27T05:40:38.248Z,5.82
2017-12-27T05:41:40.723Z,5.82
2017-12-27T05:42:43.179Z,5.84
2017-12-27T05:43:45.665Z,5.83
2017-12-27T05:44:48.129Z,5.79
2017-12-27T05:45:50.597Z,5.79
2017-12-27T05:46:53.057Z,5.79
2017-12-27T05:47:55.497Z,5.80
2017-12-27T05:48:57.976Z,5.79
2017-12-27T05:50:00.442Z,5.81
2017-12-27T05:51:02.885Z,5.77
2017-12-27T05:52:05.444Z,5.77
2017-12-27T05:53:07.908Z,5.76
2017-12-27T05:54:10.377Z,5.78
2017-12-27T05:55:12.842Z,5.75
2017-12-27T05:56:15.302Z,5.76
2017-12-27T05:57:17.750Z,5.75
2017-12-27T05:58:20.208Z,5.77
2017-12-27T05:59:22.673Z,5.77
2017-12-27T06:00:25.124Z,5.78
2017-12-27T06:01:27.574Z,5.65
2017-12-27T06:02:30.042Z,5.81
2017-12-27T06:03:32.519Z,5.79
2017-12-27T06:04:35.045Z,5.83
2017-12-27T06:05:38.686Z,5.84
2017-12-27T06:06:41.129Z,5.85
2017-12-27T06:07:43.573Z,5.80
2017-12-27T06:08:46.033Z,5.83
2017-12-27T06:09:48.520Z,5.95
2017-12-27T06:10:50.981Z,5.94
2017-12-27T06:11:53.440Z,5.98
2017-12-27T06:12:55.917Z,6.01
2017-12-27T06:13:58.365Z,5.95
2017-12-27T06:15:00.834Z,5.96
2017-12-27T06:16:03.295Z,5.96
2017-12-27T06:17:05.756Z,6.00
2017-12-27T06:18:08.209Z,6.03
2017-12-27T06:19:10.682Z,6.01
2017-12-27T06:20:13.169Z,6.04
2017-12-27T06:21:15.648Z,5.95
2017-12-27T06:22:18.107Z,6.03
2017-12-27T06:23:20.589Z,6.07
2017-12-27T06:24:23.052Z,6.05
2017-12-27T06:25:25.540Z,6.07
2017-12-27T06:26:28.005Z,6.08
2017-12-27T06:27:30.457Z,6.16
2017-12-27T06:28:32.912Z,6.29
2017-12-27T06:29:35.354Z,6.44
2017-12-27T06:30:37.836Z,6.37
2017-12-27T06:31:40.279Z,6.31
2017-12-27T06:32:42.743Z,6.30
2017-12-27T06:33:45.204Z,6.30
2017-12-27T06:34:47.647Z,6.28
2017-12-27T06:35:50.132Z,6.33
2017-12-27T06:36:52.593Z,6.27
2017-12-27T06:37:55.064Z,6.30
2017-12-27T06:38:58.416Z,6.40
2017-12-27T06:40:00.919Z,6.23
2017-12-27T06:41:03.420Z,6.23
2017-12-27T06:42:05.862Z,6.18
2017-12-27T06:43:08.321Z,6.42
2017-12-27T06:44:10.802Z,6.47
2017-12-27T06:45:13.267Z,6.44
2017-12-27T06:46:15.750Z,6.28
2017-12-27T06:47:18.210Z,6.17
2017-12-27T06:48:20.672Z,6.20
2017-12-27T06:49:23.122Z,6.15
2017-12-27T06:50:25.571Z,6.15
2017-12-27T06:51:28.060Z,6.18
2017-12-27T06:52:30.507Z,6.16
2017-12-27T06:53:33.007Z,6.15
2017-12-27T06:54:35.469Z,6.07
2017-12-27T06:55:37.922Z,6.05
2017-12-27T06:56:40.404Z,6.06
2017-12-27T06:57:42.850Z,5.97
2017-12-27T06:58:45.298Z,5.92
2017-12-27T06:59:47.746Z,5.89
2017-12-27T07:00:50.201Z,5.89
2017-12-27T07:01:52.680Z,5.93
2017-12-27T07:02:55.139Z,5.86
2017-12-27T07:03:57.597Z,5.84
2017-12-27T07:05:00.104Z,5.82
2017-12-27T07:06:02.552Z,5.80
2017-12-27T07:07:05.036Z,5.80
2017-12-27T07:08:07.503Z,5.79
2017-12-27T07:09:09.954Z,5.75
2017-12-27T07:10:12.429Z,5.74
2017-12-27T07:11:14.898Z,5.71
2017-12-27T07:12:17.391Z,5.74
2017-12-27T07:13:19.838Z,5.74
2017-12-27T07:14:22.277Z,5.69
2017-12-27T07:15:24.740Z,5.70
2017-12-27T07:16:27.205Z,5.70
2017-12-27T07:17:29.693Z,5.67
2017-12-27T07:18:32.196Z,5.67
2017-12-27T07:19:34.656Z,5.66
2017-12-27T07:20:37.132Z,5.70
2017-12-27T07:21:39.583Z,5.66
2017-12-27T07:22:42.068Z,5.66
2017-12-27T07:23:44.511Z,5.61
2017-12-27T07:24:47.043Z,5.57
2017-12-27T07:25:49.508Z,5.53
2017-12-27T07:26:51.949Z,5.52
2017-12-27T07:27:54.424Z,5.49
2017-12-27T07:28:56.884Z,5.48
2017-12-27T07:29:59.334Z,5.46
2017-12-27T07:31:01.774Z,5.47
2017-12-27T07:32:04.226Z,5.41
2017-12-27T07:33:06.695Z,5.46
2017-12-27T07:34:09.160Z,5.44
2017-12-27T07:35:11.620Z,5.43
2017-12-27T07:36:14.122Z,5.41
2017-12-27T07:37:16.583Z,5.45
2017-12-27T07:38:19.107Z,5.45
2017-12-27T07:39:21.653Z,5.46
2017-12-27T07:40:24.097Z,5.46
2017-12-27T07:41:26.570Z,5.39
2017-12-27T07:42:29.010Z,5.39
2017-12-27T07:43:31.469Z,5.38
2017-12-27T07:44:33.932Z,5.40
2017-12-27T07:45:36.373Z,5.39
2017-12-27T07:46:38.814Z,5.35
2017-12-27T07:47:41.278Z,5.39
2017-12-27T07:48:43.745Z,5.40
2017-12-27T07:49:46.208Z,5.37
2017-12-27T07:50:48.676Z,5.31
2017-12-27T07:51:51.139Z,5.33
2017-12-27T07:52:53.582Z,5.33
2017-12-27T07:53:56.101Z,5.34
2017-12-27T07:54:58.564Z,5.34
2017-12-27T07:56:01.024Z,5.32
2017-12-27T07:57:03.492Z,5.33
2017-12-27T07:58:05.946Z,5.32
2017-12-27T07:59:08.432Z,5.31
2017-12-27T08:00:10.904Z,5.24
2017-12-27T08:01:13.367Z,5.24
2017-12-27T08:02:15.811Z,5.24
2017-12-27T08:03:18.280Z,5.24
2017-12-27T08:04:20.768Z,5.27
2017-12-27T08:05:23.228Z,5.19
2017-12-27T08:06:25.687Z,5.16
2017-12-27T08:07:28.134Z,5.16
2017-12-27T08:08:30.592Z,5.11
2017-12-27T08:09:33.051Z,5.10
2017-12-27T08:10:35.494Z,5.10
2017-12-27T08:11:37.939Z,4.99
2017-12-27T08:12:40.382Z,5.12
2017-12-27T08:13:42.844Z,5.11
2017-12-27T08:14:45.323Z,5.05
2017-12-27T08:15:47.785Z,5.02
2017-12-27T08:16:50.230Z,5.06
2017-12-27T08:17:52.688Z,5.02
2017-12-27T08:18:55.156Z,5.03
2017-12-27T08:19:57.876Z,5.08
2017-12-27T08:21:00.329Z,5.06
2017-12-27T08:22:02.788Z,5.05
2017-12-27T08:23:05.247Z,5.07
2017-12-27T08:24:07.745Z,5.01
2017-12-27T08:25:10.209Z,5.00
2017-12-27T08:26:12.649Z,5.03
2017-12-27T08:27:15.094Z,5.03
2017-12-27T08:28:17.537Z,5.05
2017-12-27T08:29:19.978Z,5.03
2017-12-27T08:30:22.456Z,5.06
2017-12-27T08:31:24.920Z,5.06
2017-12-27T08:32:27.362Z,5.05
2017-12-27T08:33:29.824Z,5.07
2017-12-27T08:34:32.277Z,5.02
2017-12-27T08:35:34.741Z,4.99
2017-12-27T08:36:37.196Z,5.04
2017-12-27T08:37:39.651Z,5.07
2017-12-27T08:38:42.094Z,5.07
2017-12-27T08:39:44.552Z,5.05
2017-12-27T08:40:47.034Z,5.06
2017-12-27T08:41:49.496Z,5.08
2017-12-27T08:42:51.941Z,5.11
2017-12-27T08:43:54.381Z,5.04
2017-12-27T08:44:56.821Z,5.10
2017-12-27T08:45:59.322Z,5.07
2017-12-27T08:47:01.765Z,5.11
2017-12-27T08:48:04.214Z,5.08
2017-12-27T08:49:06.650Z,5.12
2017-12-27T08:50:09.108Z,5.12
2017-12-27T08:51:11.570Z,5.11
2017-12-27T08:52:14.032Z,5.09
2017-12-27T08:53:16.492Z,5.12
2017-12-27T08:54:18.934Z,5.17
2017-12-27T08:55:21.396Z,5.18
2017-12-27T08:56:23.876Z,5.24
2017-12-27T08:57:26.340Z,5.22
2017-12-27T08:58:28.785Z,5.24
2017-12-27T08:59:31.242Z,5.24
2017-12-27T09:00:33.698Z,5.24
2017-12-27T09:01:36.162Z,5.26
2017-12-27T09:02:38.681Z,5.25
2017-12-27T09:03:41.148Z,5.25
2017-12-27T09:04:43.602Z,5.21
2017-12-27T09:05:46.064Z,5.22
2017-12-27T09:06:48.534Z,5.24
2017-12-27T09:07:50.992Z,5.23
2017-12-27T09:08:53.452Z,5.27
2017-12-27T09:09:55.951Z,5.31
2017-12-27T09:10:58.389Z,5.25
2017-12-27T09:12:00.869Z,5.23
2017-12-27T09:13:03.320Z,5.28
2017-12-27T09:14:05.805Z,5.34
2017-12-27T09:15:08.245Z,5.43
2017-12-27T09:16:10.747Z,5.40
2017-12-27T09:17:13.230Z,5.37
2017-12-27T09:18:15.691Z,5.38
2017-12-27T09:19:18.134Z,5.43
2017-12-27T09:20:20.592Z,5.43
2017-12-27T09:21:23.044Z,5.42
2017-12-27T09:22:25.518Z,5.44
2017-12-27T09:23:27.962Z,5.59
2017-12-27T09:24:30.424Z,5.58
2017-12-27T09:25:32.888Z,5.53
2017-12-27T09:26:35.371Z,5.48
2017-12-27T09:27:37.829Z,5.48
2017-12-27T09:28:40.292Z,5.78
2017-12-27T09:29:42.734Z,5.65
2017-12-27T09:30:45.192Z,5.69
2017-12-27T09:31:47.642Z,5.58
2017-12-27T09:32:50.113Z,5.53
2017-12-27T09:33:52.572Z,5.50
2017-12-27T09:34:55.037Z,5.52
2017-12-27T09:35:57.500Z,5.49
2017-12-27T09:36:59.945Z,5.49
2017-12-27T09:38:02.428Z,5.42
2017-12-27T09:39:04.893Z,5.41
2017-12-27T09:40:07.477Z,5.46
2017-12-27T09:41:09.952Z,5.46
2017-12-27T09:42:12.410Z,5.37
2017-12-27T09:43:14.892Z,5.40
2017-12-27T09:44:17.334Z,5.39
2017-12-27T09:45:19.782Z,5.41
2017-12-27T09:46:22.249Z,5.39
2017-12-27T09:47:24.697Z,5.40
2017-12-27T09:48:27.181Z,5.38
2017-12-27T09:49:29.646Z,5.34
2017-12-27T09:50:32.089Z,5.37
2017-12-27T09:51:34.549Z,5.35
2017-12-27T09:52:37.008Z,5.32
2017-12-27T09:53:39.488Z,5.28
2017-12-27T09:54:41.951Z,5.31
2017-12-27T09:55:44.421Z,5.31
2017-12-27T09:56:46.866Z,5.31
2017-12-27T09:57:50.357Z,5.32
2017-12-27T09:58:54.034Z,5.36
2017-12-27T09:59:56.554Z,5.35
2017-12-27T10:00:59.018Z,5.34
2017-12-27T10:02:01.476Z,5.32
2017-12-27T10:03:03.987Z,5.28
2017-12-27T10:04:06.481Z,5.24
2017-12-27T10:05:10.014Z,5.25
2017-12-27T10:06:13.783Z,5.24
2017-12-27T10:07:17.449Z,5.25
2017-12-27T10:08:19.970Z,5.23
2017-12-27T10:09:22.444Z,5.18
2017-12-27T10:10:24.891Z,5.19
2017-12-27T10:11:27.352Z,5.24
2017-12-27T10:12:29.811Z,5.24
2017-12-27T10:13:32.272Z,5.21
2017-12-27T10:14:34.734Z,5.22
2017-12-27T10:15:37.174Z,5.27
2017-12-27T10:16:39.614Z,5.24
2017-12-27T10:17:42.071Z,5.22
2017-12-27T10:18:44.513Z,5.21
2017-12-27T10:19:46.997Z,5.24
2017-12-27T10:20:49.456Z,5.25
2017-12-27T10:21:51.915Z,5.21
2017-12-27T10:22:54.378Z,5.26
2017-12-27T10:23:56.933Z,5.28
2017-12-27T10:24:59.393Z,5.35
2017-12-27T10:26:01.861Z,5.37
2017-12-27T10:27:04.320Z,5.38
2017-12-27T10:28:06.770Z,5.36
2017-12-27T10:29:09.217Z,5.33
2017-12-27T10:30:11.686Z,5.37
2017-12-27T10:31:14.130Z,5.37
2017-12-27T10:32:16.576Z,5.35
2017-12-27T10:33:19.018Z,5.38
2017-12-27T10:34:21.464Z,5.34
2017-12-27T10:35:23.944Z,5.28
2017-12-27T10:36:26.386Z,5.32
2017-12-27T10:37:28.834Z,5.30
2017-12-27T10:38:31.300Z,5.34
2017-12-27T10:39:33.760Z,5.36
2017-12-27T10:40:36.247Z,5.38
2017-12-27T10:41:38.690Z,5.44
2017-12-27T10:42:41.141Z,5.47
2017-12-27T10:43:43.601Z,5.51
2017-12-27T10:44:46.068Z,5.59
2017-12-27T10:45:48.543Z,5.57
2017-12-27T10:46:51.049Z,5.56
2017-12-27T10:47:53.516Z,5.50
2017-12-27T10:48:55.976Z,5.57
2017-12-27T10:49:58.440Z,5.67
2017-12-27T10:51:00.917Z,5.68
2017-12-27T10:52:03.375Z,5.66
2017-12-27T10:53:05.826Z,5.70
2017-12-27T10:54:08.273Z,5.85
2017-12-27T10:55:10.760Z,5.80
2017-12-27T10:56:13.228Z,5.81
2017-12-27T10:57:15.696Z,5.79
2017-12-27T10:58:18.161Z,5.81
2017-12-27T10:59:20.624Z,5.83
2017-12-27T11:00:23.088Z,5.88
2017-12-27T11:01:25.569Z,5.87
2017-12-27T11:02:28.010Z,5.85
2017-12-27T11:03:31.495Z,5.96
2017-12-27T11:04:33.952Z,5.96
2017-12-27T11:05:36.412Z,5.92
2017-12-27T11:06:38.898Z,5.94
2017-12-27T11:07:41.366Z,6.07
2017-12-27T11:08:43.814Z,5.99
2017-12-27T11:09:46.275Z,5.95
2017-12-27T11:10:48.736Z,5.94
2017-12-27T11:11:51.178Z,5.91
2017-12-27T11:12:53.633Z,5.94
2017-12-27T11:13:56.137Z,5.96
2017-12-27T11:14:58.653Z,5.96
2017-12-27T11:16:01.074Z,5.88
2017-12-27T11:17:03.531Z,5.82
2017-12-27T11:18:05.988Z,5.73
2017-12-27T11:19:08.519Z,5.71
2017-12-27T11:20:10.978Z,5.80
2017-12-27T11:21:13.426Z,5.83
2017-12-27T11:22:15.900Z,5.90
2017-12-27T11:23:18.365Z,5.80
2017-12-27T11:24:20.820Z,5.84
2017-12-27T11:25:23.268Z,5.87
2017-12-27T11:26:25.723Z,5.86
2017-12-27T11:27:28.186Z,5.85
2017-12-27T11:28:30.646Z,5.88
2017-12-27T11:29:33.116Z,5.86
2017-12-27T11:30:35.583Z,5.89
2017-12-27T11:31:38.052Z,5.86
2017-12-27T11:32:40.527Z,5.96
2017-12-27T11:33:42.985Z,5.86
2017-12-27T11:34:45.451Z,5.96
2017-12-27T11:35:47.913Z,5.97
2017-12-27T11:36:50.395Z,5.96
2017-12-27T11:37:52.891Z,6.02
2017-12-27T11:38:55.342Z,6.04
2017-12-27T11:39:57.804Z,5.98
2017-12-27T11:41:00.250Z,6.00
2017-12-27T11:42:02.716Z,6.07
2017-12-27T11:43:05.196Z,6.11
2017-12-27T11:44:07.656Z,6.13
2017-12-27T11:45:10.102Z,6.12
2017-12-27T11:46:12.560Z,6.17
2017-12-27T11:47:15.014Z,6.09
2017-12-27T11:48:17.508Z,6.02
2017-12-27T11:49:19.972Z,6.05
2017-12-27T11:50:22.456Z,6.09
2017-12-27T11:51:24.898Z,6.21
2017-12-27T11:52:27.345Z,6.12
2017-12-27T11:53:29.829Z,6.18
2017-12-27T11:54:32.288Z,6.23
2017-12-27T11:55:34.735Z,6.28
2017-12-27T11:56:37.192Z,6.23
2017-12-27T11:57:39.656Z,6.19
2017-12-27T11:58:42.125Z,6.25
2017-12-27T11:59:44.574Z,6.29
2017-12-27T12:00:47.024Z,6.29
2017-12-27T12:01:49.470Z,6.34
2017-12-27T12:02:51.910Z,6.29
2017-12-27T12:03:54.392Z,6.25
2017-12-27T12:04:56.931Z,6.31
2017-12-27T12:05:59.373Z,6.34
2017-12-27T12:07:01.819Z,6.37
2017-12-27T12:08:04.270Z,6.39
2017-12-27T12:09:06.760Z,6.30
2017-12-27T12:10:09.219Z,6.38
2017-12-27T12:11:11.688Z,6.41
2017-12-27T12:12:14.130Z,6.47
2017-12-27T12:13:16.588Z,6.51
2017-12-27T12:14:19.064Z,6.48
2017-12-27T12:15:21.505Z,6.50
2017-12-27T12:16:23.964Z,6.49
2017-12-27T12:17:26.428Z,6.43
2017-12-27T12:18:28.890Z,6.53
2017-12-27T12:19:31.354Z,6.52
2017-12-27T12:20:33.816Z,6.53
2017-12-27T12:21:36.266Z,6.53
2017-12-27T12:22:38.710Z,6.55
2017-12-27T12:23:41.153Z,6.68
2017-12-27T12:24:43.640Z,6.67
2017-12-27T12:25:46.118Z,6.70
2017-12-27T12:26:48.580Z,6.72
2017-12-27T12:27:51.044Z,6.61
2017-12-27T12:28:53.491Z,6.74
2017-12-27T12:29:55.959Z,6.81
2017-12-27T12:30:58.408Z,6.78
2017-12-27T12:32:00.853Z,6.92
2017-12-27T12:33:03.363Z,6.85
2017-12-27T12:34:05.814Z,6.84
2017-12-27T12:35:08.296Z,6.84
2017-12-27T12:36:10.751Z,6.95
2017-12-27T12:37:13.255Z,6.96
2017-12-27T12:38:15.701Z,7.00
2017-12-27T12:39:18.173Z,7.01
2017-12-27T12:40:20.638Z,6.96
2017-12-27T12:41:23.124Z,7.10
2017-12-27T12:42:25.648Z,7.18
2017-12-27T12:43:28.116Z,7.21
2017-12-27T12:44:30.580Z,7.16
2017-12-27T12:45:33.089Z,7.13
2017-12-27T12:46:35.533Z,7.08
2017-12-27T12:47:37.974Z,7.04
2017-12-27T12:48:40.448Z,7.07
2017-12-27T12:49:42.897Z,7.11
2017-12-27T12:50:45.400Z,7.07
2017-12-27T12:51:47.890Z,7.03
2017-12-27T12:52:50.334Z,7.11
2017-12-27T12:53:52.796Z,7.29
2017-12-27T12:54:55.247Z,7.50
2017-12-27T12:55:57.734Z,7.71
2017-12-27T12:57:00.192Z,7.81
2017-12-27T12:58:02.663Z,7.80
2017-12-27T12:59:05.119Z,7.82
2017-12-27T13:00:07.575Z,7.88
2017-12-27T13:01:10.059Z,7.95
2017-12-27T13:02:12.502Z,7.93
2017-12-27T13:03:14.957Z,7.95
2017-12-27T13:04:17.406Z,7.93
2017-12-27T13:05:19.868Z,7.96
2017-12-27T13:06:22.349Z,7.88
2017-12-27T13:07:24.831Z,7.76
2017-12-27T13:08:27.300Z,7.68
2017-12-27T13:09:29.759Z,7.63
2017-12-27T13:10:32.220Z,7.53
2017-12-27T13:11:34.700Z,7.54
2017-12-27T13:12:37.180Z,7.45
2017-12-27T13:13:39.622Z,7.57
2017-12-27T13:14:42.070Z,7.59
2017-12-27T13:15:44.553Z,7.59
2017-12-27T13:16:47.040Z,7.59
2017-12-27T13:17:49.485Z,7.54
2017-12-27T13:18:51.948Z,7.48
2017-12-27T13:19:54.408Z,7.47
2017-12-27T13:20:56.872Z,7.51
2017-12-27T13:21:59.343Z,7.56
2017-12-27T13:23:01.799Z,7.47
2017-12-27T13:24:04.263Z,7.49
2017-12-27T13:25:06.710Z,7.45
2017-12-27T13:26:09.163Z,7.48
2017-12-27T13:27:11.643Z,7.56
2017-12-27T13:28:14.094Z,7.66
2017-12-27T13:29:16.549Z,7.72
2017-12-27T13:30:18.999Z,7.79
2017-12-27T13:31:21.456Z,7.75
2017-12-27T13:32:23.932Z,7.85
2017-12-27T13:33:26.417Z,8.13
2017-12-27T13:34:28.865Z,8.24
2017-12-27T13:35:31.306Z,8.28
2017-12-27T13:36:33.764Z,8.34
2017-12-27T13:37:36.231Z,8.55
2017-12-27T13:38:38.679Z,8.59
2017-12-27T13:39:41.143Z,8.50
2017-12-27T13:40:43.600Z,8.61
2017-12-27T13:41:46.060Z,8.45
2017-12-27T13:42:48.531Z,8.38
2017-12-27T13:43:51.012Z,8.19
2017-12-27T13:44:53.479Z,8.24
2017-12-27T13:45:55.943Z,8.31
2017-12-27T13:46:58.404Z,8.15
2017-12-27T13:48:00.891Z,8.06
2017-12-27T13:49:03.361Z,8.01
2017-12-27T13:50:05.820Z,8.10
2017-12-27T13:51:08.269Z,8.07
2017-12-27T13:52:10.733Z,7.94
2017-12-27T13:53:13.198Z,7.88
2017-12-27T13:54:15.671Z,7.89
2017-12-27T13:55:18.130Z,7.89
2017-12-27T13:56:20.592Z,7.86
2017-12-27T13:57:23.056Z,7.56